Time;durP1;ratioP1;P1;durP2;ratioP2;P2;SDS_P1;SDS_P2;PMS_P1;PMS_P2;Temp;Humidity;BMP_temperature;BMP_pressure;BME280_temperature;BME280_humidity;BME280_pressure;Samples;Min_cycle;Max_cycle;Signal;HPM_P1;HPM_P2
2022/02/24 00:01:07;;;;;;;9.07;3.65;;;;;;;;;;5013384;28;20049;-95
2022/02/24 00:03:34;;;;;;;6.55;3.00;;;;;;;;;;5006814;28;20480;-93
2022/02/24 00:06:01;;;;;;;5.65;3.42;;;;;;;;;;4997103;28;20393;-95
2022/02/24 00:08:27;;;;;;;3.08;2.63;;;;;;;;;;5014804;28;20137;-95
2022/02/24 00:10:53;;;;;;;6.20;2.97;;;;;;;;;;5014767;28;20014;-95
2022/02/24 00:13:19;;;;;;;5.53;3.28;;;;;;;;;;5013248;28;20069;-95
2022/02/24 00:15:45;;;;;;;7.55;3.05;;;;;;;;;;4998264;28;20117;-95
2022/02/24 00:18:12;;;;;;;11.80;3.50;;;;;;;;;;5018286;28;20553;-96
2022/02/24 00:20:39;;;;;;;6.50;3.38;;;;;;;;;;5019081;28;20018;-95
2022/02/24 00:23:05;;;;;;;8.25;2.80;;;;;;;;;;5018246;28;20025;-96
2022/02/24 00:25:31;;;;;;;6.00;4.38;;;;;;;;;;5018226;28;20088;-96
2022/02/24 00:27:57;;;;;;;9.18;4.68;;;;;;;;;;5019821;28;20030;-96
2022/02/24 00:30:24;;;;;;;7.90;3.05;;;;;;;;;;5020213;28;20041;-96
2022/02/24 00:32:51;;;;;;;5.10;3.28;;;;;;;;;;5018865;28;20050;-95
2022/02/24 00:35:18;;;;;;;5.38;3.15;;;;;;;;;;5020363;28;20038;-95
2022/02/24 00:37:47;;;;;;;3.83;2.58;;;;;;;;;;5020307;28;20042;-96
2022/02/24 00:40:13;;;;;;;7.07;2.70;;;;;;;;;;5003545;28;20026;-96
2022/02/24 00:42:44;;;;;;;4.95;3.65;;;;;;;;;;5016573;28;20102;-95
2022/02/24 00:45:13;;;;;;;6.80;3.00;;;;;;;;;;4989998;28;20061;-95
2022/02/24 00:47:44;;;;;;;5.50;3.70;;;;;;;;;;5003722;28;20092;-96
2022/02/24 00:50:17;;;;;;;4.18;2.53;;;;;;;;;;5002027;28;20034;-96
2022/02/24 00:52:48;;;;;;;6.07;2.92;;;;;;;;;;5003900;28;20026;-96
2022/02/24 00:55:28;;;;;;;4.88;2.90;;;;;;;;;;5014781;28;20410;-95
2022/02/24 00:57:57;;;;;;;4.53;3.17;;;;;;;;;;5032531;28;20064;-95
2022/02/24 01:00:29;;;;;;;19.67;3.72;;;;;;;;;;5037675;28;20029;-96
2022/02/24 01:03:06;;;;;;;5.35;2.83;;;;;;;;;;4985822;28;20055;-96
2022/02/24 01:05:41;;;;;;;3.08;2.28;;;;;;;;;;5004853;28;20026;-96
2022/02/24 01:08:11;;;;;;;3.67;2.28;;;;;;;;;;5004994;28;20117;-96
2022/02/24 01:10:42;;;;;;;5.65;3.22;;;;;;;;;;4995120;28;20039;-95
2022/02/24 01:13:14;;;;;;;4.57;3.45;;;;;;;;;;5008101;28;20090;-96
2022/02/24 01:16:01;;;;;;;5.53;3.03;;;;;;;;;;5008848;28;20088;-95
2022/02/24 01:18:33;;;;;;;4.80;3.17;;;;;;;;;;5007607;28;20051;-95
2022/02/24 01:21:27;;;;;;;7.05;3.33;;;;;;;;;;4943809;28;20038;-95
2022/02/24 01:24:13;;;;;;;8.32;3.35;;;;;;;;;;5006130;28;20034;-96
2022/02/24 01:26:43;;;;;;;7.80;3.08;;;;;;;;;;4990207;28;20034;-95
2022/02/24 01:29:25;;;;;;;6.03;3.92;;;;;;;;;;5002510;28;20030;-95
2022/02/24 01:31:57;;;;;;;3.70;2.67;;;;;;;;;;4990003;28;20034;-96
2022/02/24 01:34:29;;;;;;;3.83;3.30;;;;;;;;;;5006586;28;20046;-95
2022/02/24 01:37:00;;;;;;;4.93;3.00;;;;;;;;;;4998577;28;20109;-95
2022/02/24 01:39:29;;;;;;;4.97;4.05;;;;;;;;;;5017212;28;20034;-95
2022/02/24 01:42:04;;;;;;;6.65;2.83;;;;;;;;;;5000918;28;20038;-96
2022/02/24 01:44:44;;;;;;;3.97;3.65;;;;;;;;;;5003621;28;20027;-96
2022/02/24 01:47:12;;;;;;;4.03;2.38;;;;;;;;;;5001230;28;20077;-96
2022/02/24 01:49:39;;;;;;;3.63;2.90;;;;;;;;;;4996488;28;20026;-96
2022/02/24 01:52:07;;;;;;;4.32;2.80;;;;;;;;;;4989637;28;20411;-96
2022/02/24 01:54:36;;;;;;;14.05;3.17;;;;;;;;;;4999733;28;20049;-95
2022/02/24 01:57:05;;;;;;;4.18;2.70;;;;;;;;;;4996613;28;20022;-95
2022/02/24 01:59:33;;;;;;;9.57;3.83;;;;;;;;;;4996343;28;20026;-95
2022/02/24 02:02:00;;;;;;;5.60;3.80;;;;;;;;;;5004724;28;20137;-95
2022/02/24 02:04:26;;;;;;;3.72;2.90;;;;;;;;;;5018249;28;20037;-96
2022/02/24 02:06:54;;;;;;;4.60;3.22;;;;;;;;;;5016429;28;20040;-95
2022/02/24 02:09:21;;;;;;;4.80;3.03;;;;;;;;;;5017935;28;20041;-95
2022/02/24 02:11:49;;;;;;;6.30;3.27;;;;;;;;;;5018057;28;20486;-96
2022/02/24 02:14:15;;;;;;;3.20;2.90;;;;;;;;;;5018175;28;20301;-96
2022/02/24 02:16:49;;;;;;;18.83;5.37;;;;;;;;;;5016799;28;20060;-95
2022/02/24 02:19:15;;;;;;;5.32;2.25;;;;;;;;;;5017044;28;20041;-95
2022/02/24 02:21:43;;;;;;;16.88;2.85;;;;;;;;;;5018397;28;20458;-96
2022/02/24 02:24:09;;;;;;;3.70;2.42;;;;;;;;;;5018065;28;20042;-95
2022/02/24 02:26:36;;;;;;;7.85;2.38;;;;;;;;;;5018592;28;20076;-96
2022/02/24 02:29:04;;;;;;;13.48;4.22;;;;;;;;;;5017084;28;20042;-95
2022/02/24 02:31:30;;;;;;;10.75;4.72;;;;;;;;;;5000071;28;20107;-96
2022/02/24 02:34:04;;;;;;;5.70;4.53;;;;;;;;;;5015880;28;20044;-95
2022/02/24 02:36:31;;;;;;;18.08;5.30;;;;;;;;;;5017604;28;20037;-96
2022/02/24 02:38:58;;;;;;;11.00;4.70;;;;;;;;;;5016584;28;20022;-96
2022/02/24 02:41:34;;;;;;;6.13;3.13;;;;;;;;;;5017611;28;20038;-95
2022/02/24 02:44:02;;;;;;;6.07;4.10;;;;;;;;;;5017694;28;20406;-96
2022/02/24 02:46:29;;;;;;;4.07;2.78;;;;;;;;;;5000650;28;20034;-96
2022/02/24 02:48:56;;;;;;;9.52;3.80;;;;;;;;;;5017593;28;20096;-95
2022/02/24 02:51:22;;;;;;;8.15;3.30;;;;;;;;;;5000665;28;20029;-95
2022/02/24 02:53:48;;;;;;;9.38;3.67;;;;;;;;;;5001520;28;20037;-95
2022/02/24 02:56:16;;;;;;;3.35;2.30;;;;;;;;;;5018166;28;20081;-95
2022/02/24 02:58:43;;;;;;;6.25;3.08;;;;;;;;;;5018891;28;20034;-95
2022/02/24 03:01:11;;;;;;;6.47;2.72;;;;;;;;;;5017440;28;20117;-95
2022/02/24 03:03:38;;;;;;;4.10;2.63;;;;;;;;;;5018976;28;20172;-96
2022/02/24 03:06:04;;;;;;;13.27;3.35;;;;;;;;;;5017860;28;20057;-96
2022/02/24 03:08:33;;;;;;;5.38;3.47;;;;;;;;;;5018520;28;20033;-95
2022/02/24 03:10:59;;;;;;;7.03;3.40;;;;;;;;;;5015424;28;20049;-96
2022/02/24 03:13:30;;;;;;;9.38;4.03;;;;;;;;;;5018918;28;20030;-95
2022/02/24 03:15:59;;;;;;;7.88;3.75;;;;;;;;;;5018868;28;20037;-96
2022/02/24 03:18:27;;;;;;;2.87;1.77;;;;;;;;;;5020435;28;20048;-95
2022/02/24 03:20:54;;;;;;;3.47;2.10;;;;;;;;;;5019446;28;20681;-95
2022/02/24 03:23:21;;;;;;;3.65;2.33;;;;;;;;;;5018822;28;20030;-96
2022/02/24 03:25:49;;;;;;;5.25;2.80;;;;;;;;;;5018229;28;20138;-95
2022/02/24 03:28:15;;;;;;;6.57;2.53;;;;;;;;;;5019820;28;20018;-95
2022/02/24 03:30:43;;;;;;;2.65;1.80;;;;;;;;;;5019140;28;20029;-96
2022/02/24 03:33:12;;;;;;;6.47;1.92;;;;;;;;;;5016361;28;20050;-94
2022/02/24 03:35:38;;;;;;;11.45;4.10;;;;;;;;;;5004547;28;20034;-95
2022/02/24 03:38:07;;;;;;;1.42;1.23;;;;;;;;;;5020975;28;20034;-96
2022/02/24 03:40:33;;;;;;;1.52;1.42;;;;;;;;;;5017137;28;20038;-96
2022/02/24 03:43:03;;;;;;;4.03;1.77;;;;;;;;;;5003270;28;20041;-95
2022/02/24 03:45:34;;;;;;;5.75;1.90;;;;;;;;;;5020283;28;20084;-96
2022/02/24 03:48:05;;;;;;;2.22;1.98;;;;;;;;;;5020980;28;20033;-96
2022/02/24 03:50:37;;;;;;;2.17;1.98;;;;;;;;;;5021277;28;20037;-96
2022/02/24 03:53:12;;;;;;;4.90;2.17;;;;;;;;;;5021234;28;20038;-94
2022/02/24 03:56:03;;;;;;;2.47;2.28;;;;;;;;;;5020762;28;20042;-95
2022/02/24 03:58:32;;;;;;;3.42;2.22;;;;;;;;;;4998894;28;20030;-96
2022/02/24 04:01:06;;;;;;;4.68;2.67;;;;;;;;;;5020967;28;20042;-96
2022/02/24 04:03:35;;;;;;;9.95;2.42;;;;;;;;;;5003899;28;20054;-96
2022/02/24 04:06:01;;;;;;;4.40;2.28;;;;;;;;;;5019589;28;20407;-96
2022/02/24 04:08:27;;;;;;;5.35;2.17;;;;;;;;;;5002458;28;20030;-96
2022/02/24 04:10:55;;;;;;;4.25;2.38;;;;;;;;;;5018144;28;20403;-96
2022/02/24 04:13:22;;;;;;;6.15;2.60;;;;;;;;;;5021952;28;20041;-96
2022/02/24 04:15:48;;;;;;;3.00;1.73;;;;;;;;;;5021470;28;20209;-95
2022/02/24 04:18:14;;;;;;;2.70;2.42;;;;;;;;;;5021227;28;20030;-96
2022/02/24 04:20:40;;;;;;;6.72;2.15;;;;;;;;;;5021050;28;20045;-96
2022/02/24 04:23:06;;;;;;;2.60;2.40;;;;;;;;;;5019563;28;20038;-96
2022/02/24 04:25:32;;;;;;;6.95;2.45;;;;;;;;;;5021057;28;20018;-96
2022/02/24 04:27:58;;;;;;;3.47;2.58;;;;;;;;;;5021391;28;20037;-96
2022/02/24 04:30:25;;;;;;;5.22;2.83;;;;;;;;;;5021472;28;20033;-96
2022/02/24 04:32:51;;;;;;;2.05;1.33;;;;;;;;;;5020628;28;20025;-95
2022/02/24 04:35:17;;;;;;;3.30;2.10;;;;;;;;;;5019494;28;20038;-95
2022/02/24 04:37:44;;;;;;;6.30;1.92;;;;;;;;;;5018964;28;20053;-96
2022/02/24 04:40:10;;;;;;;4.47;3.15;;;;;;;;;;5015697;28;20026;-96
2022/02/24 04:42:37;;;;;;;2.92;1.45;;;;;;;;;;4991855;28;20034;-96
2022/02/24 04:45:03;;;;;;;2.63;1.55;;;;;;;;;;5004435;28;20034;-96
2022/02/24 04:47:29;;;;;;;3.13;1.98;;;;;;;;;;5020485;28;20108;-95
2022/02/24 04:49:55;;;;;;;4.80;2.13;;;;;;;;;;5020227;28;20029;-96
2022/02/24 04:52:21;;;;;;;5.53;2.33;;;;;;;;;;5003969;28;20037;-95
2022/02/24 04:54:47;;;;;;;3.33;2.13;;;;;;;;;;5021310;28;20037;-96
2022/02/24 04:57:14;;;;;;;6.10;2.50;;;;;;;;;;5017306;28;20069;-96
2022/02/24 04:59:40;;;;;;;4.35;1.75;;;;;;;;;;5001634;28;20034;-96
2022/02/24 05:02:06;;;;;;;3.10;1.80;;;;;;;;;;5022076;28;20046;-96
2022/02/24 05:04:32;;;;;;;7.10;2.15;;;;;;;;;;5011858;28;20057;-96
2022/02/24 05:06:58;;;;;;;10.35;3.20;;;;;;;;;;5023487;28;20022;-96
2022/02/24 05:09:25;;;;;;;7.65;3.00;;;;;;;;;;5024622;28;20026;-96
2022/02/24 05:11:51;;;;;;;10.43;3.70;;;;;;;;;;5026109;28;20026;-95
2022/02/24 05:14:17;;;;;;;4.95;2.95;;;;;;;;;;5007629;28;20068;-96
2022/02/24 05:16:44;;;;;;;12.00;2.53;;;;;;;;;;5024706;28;20074;-95
2022/02/24 05:19:10;;;;;;;3.33;2.70;;;;;;;;;;5008514;28;20115;-95
2022/02/24 05:21:36;;;;;;;5.47;2.80;;;;;;;;;;5025693;28;20026;-96
2022/02/24 05:24:05;;;;;;;4.63;2.55;;;;;;;;;;5026569;28;20033;-96
2022/02/24 05:26:31;;;;;;;6.25;2.67;;;;;;;;;;5026603;28;20334;-96
2022/02/24 05:28:58;;;;;;;14.02;2.63;;;;;;;;;;5026785;28;20049;-96
2022/02/24 05:31:24;;;;;;;3.93;2.73;;;;;;;;;;5026013;28;20018;-96
2022/02/24 05:33:50;;;;;;;2.75;2.40;;;;;;;;;;5026205;28;20293;-95
2022/02/24 05:36:16;;;;;;;3.42;2.17;;;;;;;;;;5009671;28;20152;-96
2022/02/24 05:38:42;;;;;;;5.10;2.38;;;;;;;;;;5011224;28;20025;-96
2022/02/24 05:41:08;;;;;;;4.80;2.90;;;;;;;;;;5027290;28;20033;-96
2022/02/24 05:43:34;;;;;;;4.13;2.33;;;;;;;;;;5027242;28;20018;-96
2022/02/24 05:46:00;;;;;;;5.63;3.80;;;;;;;;;;5027270;28;20030;-96
2022/02/24 05:48:29;;;;;;;10.90;4.30;;;;;;;;;;5026601;28;20025;-95
2022/02/24 05:50:55;;;;;;;5.68;3.97;;;;;;;;;;5028791;28;20085;-95
2022/02/24 05:53:21;;;;;;;6.43;2.97;;;;;;;;;;5028700;28;20026;-95
2022/02/24 05:55:49;;;;;;;2.65;2.45;;;;;;;;;;5028022;28;20034;-96
2022/02/24 05:58:15;;;;;;;2.90;1.83;;;;;;;;;;5028725;28;20037;-95
2022/02/24 06:00:42;;;;;;;6.05;2.20;;;;;;;;;;5027504;28;20041;-96
2022/02/24 06:03:08;;;;;;;8.32;2.60;;;;;;;;;;5026742;28;20100;-95
2022/02/24 06:05:34;;;;;;;5.07;3.03;;;;;;;;;;5009397;28;20033;-96
2022/02/24 06:08:00;;;;;;;8.93;2.92;;;;;;;;;;5025860;28;20026;-96
2022/02/24 06:10:26;;;;;;;3.03;2.75;;;;;;;;;;5025332;28;20034;-96
2022/02/24 06:12:57;;;;;;;4.30;2.00;;;;;;;;;;5025690;28;20030;-96
2022/02/24 06:15:24;;;;;;;6.45;3.03;;;;;;;;;;5026881;28;20030;-96
2022/02/24 06:17:50;;;;;;;6.37;2.63;;;;;;;;;;5009735;28;20038;-96
2022/02/24 06:20:16;;;;;;;6.20;4.15;;;;;;;;;;5025027;28;20273;-96
2022/02/24 06:22:42;;;;;;;5.25;1.90;;;;;;;;;;5025592;28;20491;-96
2022/02/24 06:25:09;;;;;;;5.47;2.38;;;;;;;;;;5024798;28;20098;-96
2022/02/24 06:27:35;;;;;;;5.30;3.28;;;;;;;;;;5018548;28;20026;-96
2022/02/24 06:30:01;;;;;;;3.55;3.25;;;;;;;;;;5035997;28;20036;-96
2022/02/24 06:32:27;;;;;;;4.90;2.88;;;;;;;;;;5034639;28;20032;-96
2022/02/24 06:34:54;;;;;;;8.98;3.15;;;;;;;;;;5034957;28;20041;-95
2022/02/24 06:37:20;;;;;;;5.53;2.65;;;;;;;;;;5017340;28;20100;-95
2022/02/24 06:39:47;;;;;;;2.60;2.10;;;;;;;;;;5020161;28;20082;-95
2022/02/24 06:42:14;;;;;;;3.92;2.20;;;;;;;;;;5022220;28;20034;-95
2022/02/24 06:58:20;;;;;;;11.02;5.25;;;;;;;;;;5957983;22;20027;-96
2022/02/24 07:06:24;;;;;;;9.93;2.90;;;;;;;;;;5208325;22;24277;-93
2022/02/24 07:08:58;;;;;;;4.53;3.55;;;;;;;;;;5051475;28;20123;-93
2022/02/24 07:11:24;;;;;;;5.93;3.17;;;;;;;;;;5052409;28;20110;-95
2022/02/24 07:13:50;;;;;;;5.90;3.22;;;;;;;;;;5049834;28;20052;-91
2022/02/24 07:16:16;;;;;;;7.65;4.25;;;;;;;;;;5052402;28;20029;-94
2022/02/24 07:18:42;;;;;;;6.63;3.15;;;;;;;;;;5050696;28;20044;-93
2022/02/24 07:21:08;;;;;;;9.32;3.25;;;;;;;;;;5052458;28;20063;-93
2022/02/24 07:23:35;;;;;;;6.97;2.40;;;;;;;;;;5052296;28;20017;-92
2022/02/24 07:26:01;;;;;;;5.40;3.47;;;;;;;;;;5034136;28;20131;-93
2022/02/24 07:28:27;;;;;;;2.97;1.50;;;;;;;;;;5034523;28;20061;-94
2022/02/24 07:30:53;;;;;;;4.05;1.77;;;;;;;;;;5052155;28;20032;-96
2022/02/24 07:33:19;;;;;;;17.05;2.10;;;;;;;;;;5056126;28;20021;-94
2022/02/24 07:35:45;;;;;;;6.57;2.78;;;;;;;;;;5054739;28;20024;-94
2022/02/24 07:38:14;;;;;;;9.13;1.98;;;;;;;;;;5072557;28;20032;-95
2022/02/24 07:40:40;;;;;;;4.18;2.50;;;;;;;;;;5056990;28;20018;-96
2022/02/24 07:43:06;;;;;;;2.60;1.60;;;;;;;;;;5018324;28;20062;-90
2022/02/24 07:45:32;;;;;;;9.40;2.22;;;;;;;;;;5031013;28;20032;-91
2022/02/24 07:47:59;;;;;;;4.43;2.17;;;;;;;;;;5027017;28;20115;-87
2022/02/24 07:50:25;;;;;;;10.90;1.50;;;;;;;;;;5020030;28;20036;-89
2022/02/24 07:52:51;;;;;;;5.00;2.03;;;;;;;;;;5040343;28;20548;-89
2022/02/24 07:55:18;;;;;;;1.92;1.50;;;;;;;;;;5035586;28;20030;-89
2022/02/24 07:57:44;;;;;;;2.65;1.73;;;;;;;;;;5020771;28;20025;-90
2022/02/24 08:00:15;;;;;;;6.55;2.92;;;;;;;;;;5025260;28;20025;-91
2022/02/24 08:02:44;;;;;;;11.75;2.28;;;;;;;;;;5045228;28;20115;-88
2022/02/24 08:05:11;;;;;;;4.07;1.88;;;;;;;;;;5037603;28;20029;-95
2022/02/24 08:07:37;;;;;;;11.50;2.72;;;;;;;;;;5042418;28;20107;-95
2022/02/24 08:10:04;;;;;;;6.07;1.73;;;;;;;;;;5023341;28;20490;-95
2022/02/24 08:12:39;;;;;;;10.47;1.83;;;;;;;;;;5047200;28;20040;-95
2022/02/24 08:15:06;;;;;;;8.35;1.65;;;;;;;;;;5043985;28;20048;-96
2022/02/24 08:17:33;;;;;;;3.60;1.95;;;;;;;;;;5031005;28;20021;-95
2022/02/24 08:19:59;;;;;;;6.63;1.73;;;;;;;;;;5051223;28;20036;-95
2022/02/24 08:22:45;;;;;;;1.92;1.42;;;;;;;;;;5043739;28;20095;-93
2022/02/24 08:25:13;;;;;;;3.20;1.87;;;;;;;;;;5017411;28;20061;-95
2022/02/24 08:27:39;;;;;;;;;;;;;;;;;;5020708;28;20067;-95
2022/02/24 08:30:06;;;;;;;5.80;1.65;;;;;;;;;;5031351;28;20045;-94
2022/02/24 08:32:32;;;;;;;2.92;2.17;;;;;;;;;;5028367;28;20022;-96
2022/02/24 08:34:58;;;;;;;5.72;3.13;;;;;;;;;;5037469;28;20037;-95
2022/02/24 08:37:25;;;;;;;4.55;1.90;;;;;;;;;;5045297;28;20025;-94
2022/02/24 08:39:51;;;;;;;3.67;1.63;;;;;;;;;;5037218;28;20058;-96
2022/02/24 08:42:17;;;;;;;1.55;1.25;;;;;;;;;;5049910;28;20036;-94
2022/02/24 08:44:43;;;;;;;3.10;1.55;;;;;;;;;;5038187;28;20033;-94
2022/02/24 08:47:13;;;;;;;10.32;2.33;;;;;;;;;;5042855;28;20022;-92
2022/02/24 08:49:39;;;;;;;3.83;1.75;;;;;;;;;;5048739;28;20561;-94
2022/02/24 08:52:06;;;;;;;7.65;2.47;;;;;;;;;;5037325;28;20572;-94
2022/02/24 08:54:32;;;;;;;18.43;5.70;;;;;;;;;;5045437;28;20121;-94
2022/02/24 08:57:00;;;;;;;12.02;4.80;;;;;;;;;;5053487;28;20084;-94
2022/02/24 08:59:26;;;;;;;5.20;2.95;;;;;;;;;;5049019;28;20041;-94
2022/02/24 09:01:52;;;;;;;19.38;2.75;;;;;;;;;;5035661;28;20029;-94
2022/02/24 09:04:18;;;;;;;5.80;2.50;;;;;;;;;;5042804;28;20029;-90
2022/02/24 09:06:45;;;;;;;4.00;2.08;;;;;;;;;;5051104;28;20127;-90
2022/02/24 09:09:11;;;;;;;4.47;0.98;;;;;;;;;;5051415;28;20029;-90
2022/02/24 09:11:38;;;;;;;1.35;0.88;;;;;;;;;;5035981;28;20036;-92
2022/02/24 09:14:04;;;;;;;6.43;2.83;;;;;;;;;;5024357;28;20076;-88
2022/02/24 09:16:30;;;;;;;4.32;1.60;;;;;;;;;;5047611;28;20048;-93
2022/02/24 09:18:56;;;;;;;10.20;1.45;;;;;;;;;;5047310;28;20052;-93
2022/02/24 09:21:23;;;;;;;3.55;2.40;;;;;;;;;;5053844;28;20028;-92
2022/02/24 09:23:49;;;;;;;17.58;1.63;;;;;;;;;;5029610;28;20034;-93
2022/02/24 09:26:15;;;;;;;9.52;3.55;;;;;;;;;;5050179;28;20040;-92
2022/02/24 09:28:42;;;;;;;2.85;1.80;;;;;;;;;;5031737;28;20033;-92
2022/02/24 09:31:08;;;;;;;10.52;1.70;;;;;;;;;;5035386;28;20111;-91
2022/02/24 09:33:34;;;;;;;5.25;1.85;;;;;;;;;;5028890;28;20033;-93
2022/02/24 09:36:00;;;;;;;6.20;1.80;;;;;;;;;;5016997;28;20026;-92
2022/02/24 09:38:26;;;;;;;5.57;2.10;;;;;;;;;;5056303;28;20036;-90
2022/02/24 09:40:54;;;;;;;5.03;1.77;;;;;;;;;;5025909;28;20116;-91
2022/02/24 09:43:48;;;;;;;4.97;2.25;;;13.30;70.10;;;;;;5065330;28;20040;-96
2022/02/24 09:46:14;;;;;;;8.27;2.05;;;;;;;;;;5049168;28;20040;-90
2022/02/24 09:48:42;;;;;;;5.53;1.48;;;;;;;;;;5052139;28;20041;-90
2022/02/24 09:51:10;;;;;;;4.47;2.92;;;;;;;;;;5035090;28;20025;-92
2022/02/24 09:53:37;;;;;;;2.28;1.48;;;;;;;;;;5041861;28;20124;-95
2022/02/24 09:56:03;;;;;;;4.60;1.88;;;;;;;;;;5034943;28;20030;-90
2022/02/24 09:58:31;;;;;;;4.50;1.95;;;;;;;;;;5052226;28;20037;-91
2022/02/24 10:00:59;;;;;;;;;;;;;;;;;;5035671;28;20048;-90
2022/02/24 10:03:40;;;;;;;4.97;2.45;;;;;;;;;;5040546;28;19944;-91
2022/02/24 10:06:07;;;;;;;5.50;2.97;;;;;;;;;;5032362;28;20132;-93
2022/02/24 10:08:34;;;;;;;5.18;3.17;;;;;;;;;;5029722;28;20080;-95
2022/02/24 10:11:02;;;;;;;8.65;3.00;;;;;;;;;;5024324;28;20179;-87
2022/02/24 10:13:28;;;;;;;;;;;;;;;;;;5024205;28;20080;-87
2022/02/24 10:15:58;;;;;;;6.53;2.53;;;;;;;;;;5014380;28;20285;-86
2022/02/24 10:18:25;;;;;;;5.53;1.60;;;;;;;;;;5013376;28;20068;-87
2022/02/24 10:20:53;;;;;;;2.83;1.65;;;;;;;;;;5032525;28;20025;-92
2022/02/24 10:23:20;;;;;;;3.50;2.33;;;;;;;;;;5031006;28;20548;-92
2022/02/24 10:25:51;;;;;;;9.68;2.47;;;;;;;;;;5021275;28;20021;-93
2022/02/24 10:28:29;;;;;;;7.75;1.60;;;;;;;;;;5024875;28;20026;-89
2022/02/24 10:30:55;;;;;;;5.80;1.83;;;;;;;;;;5023765;28;20022;-89
2022/02/24 10:33:28;;;;;;;1.33;1.00;;;;;;;;;;5013132;28;20021;-89
2022/02/24 10:35:56;;;;;;;2.55;1.27;;;;;;;;;;5021394;28;20075;-90
2022/02/24 10:38:27;;;;;;;2.67;1.50;;;;;;;;;;5031788;28;20026;-89
2022/02/24 10:40:56;;;;;;;5.65;1.90;;;;;;;;;;5029892;28;20026;-91
2022/02/24 10:43:27;;;;;;;8.77;2.17;;;;;;;;;;5021960;28;20399;-91
2022/02/24 10:46:01;;;;;;;7.85;1.42;;;;;;;;;;5011421;28;20029;-94
2022/02/24 10:48:27;;;;;;;7.20;1.80;;;;;;;;;;5030714;28;20025;-88
2022/02/24 10:50:57;;;;;;;6.97;1.27;;;;;;;;;;5033175;28;20038;-90
2022/02/24 10:53:26;;;;;;;2.22;1.17;;;;;;;;;;5025765;28;20109;-91
2022/02/24 10:56:23;;;;;;;6.63;1.42;;;;;;;;;;5027149;28;20037;-96
2022/02/24 11:02:00;;;;;;;5.90;1.42;;;;;;;;;;5016914;28;20061;-96
2022/02/24 11:04:26;;;;;;;4.97;1.73;;;;;;;;;;4999576;28;20052;-96
2022/02/24 11:06:56;;;;;;;7.70;2.03;;;;;;;;;;5011394;28;20486;-96
2022/02/24 11:09:22;;;;;;;6.50;1.83;;;;;;;;;;5009538;28;20073;-95
2022/02/24 11:12:05;;;;;;;6.93;3.08;;;;;;;;;;5006970;28;20172;-96
2022/02/24 11:14:31;;;;;;;7.22;1.70;;;;;;;;;;4992595;28;20058;-95
2022/02/24 11:17:09;;;;;;;2.53;1.17;;;;;;;;;;5003324;28;20090;-95
2022/02/24 11:19:41;;;;;;;2.67;1.30;;;;;;;;;;5005897;28;20038;-95
2022/02/24 11:22:10;;;;;;;5.90;1.92;;;;;;;;;;4998883;28;20015;-95
2022/02/24 11:24:47;;;;;;;5.18;2.05;;;;;;;;;;5003281;28;20411;-96
2022/02/24 11:27:37;;;;;;;4.95;1.50;;;;;;;;;;5009198;28;20061;-95
2022/02/24 11:30:20;;;;;;;2.58;1.45;;;;;;;;;;5001151;28;20042;-96
2022/02/24 11:32:59;;;;;;;1.77;1.13;;;;;;;;;;4989760;28;20717;-96
2022/02/24 11:35:29;;;;;;;3.30;1.50;;;;;;;;;;4998791;28;20438;-96
2022/02/24 11:38:14;;;;;;;1.98;1.80;;;;;;;;;;5009940;28;20568;-90
2022/02/24 11:40:41;;;;;;;1.27;1.17;;;;;;;;;;5023620;28;20633;-89
2022/02/24 11:43:19;;;;;;;1.05;0.85;;;;;;;;;;5024699;28;20033;-92
2022/02/24 11:45:45;;;;;;;3.85;1.63;;;;;;;;;;5023994;28;20532;-92
2022/02/24 11:48:18;;;;;;;1.10;1.00;;;;;;;;;;5030600;28;20034;-94
2022/02/24 11:50:55;;;;;;;7.10;2.10;;;;;;;;;;5031817;28;20014;-96
2022/02/24 11:53:27;;;;;;;76.90;8.80;;;;;;;;;;5027535;28;20033;-90
2022/02/24 11:55:57;;;;;;;214.20;24.15;;;;;;;;;;5031262;28;20025;-85
2022/02/24 11:58:32;;;;;;;3.40;1.05;;;;;;;;;;5019123;28;20430;-70
2022/02/24 12:01:12;;;;;;;6.57;1.33;;;;;;;;;;5025785;28;20056;-72
2022/02/24 12:03:47;;;;;;;6.25;1.10;;;;;;;;;;5012361;28;20045;-72
2022/02/24 12:06:17;;;;;;;11.90;1.75;;;;;;;;;;5016854;28;20038;-74
2022/02/24 12:09:02;;;;;;;1.17;0.70;;;;;;;;;;5040949;28;20699;-75
2022/02/24 12:11:28;;;;;;;4.32;2.20;;;;;;;;;;5046458;28;20040;-74
2022/02/24 12:13:55;;;;;;;6.22;1.25;;;;;;;;;;5036988;28;21657;-76
2022/02/24 12:16:22;;;;;;;2.67;0.75;;;;;;;;;;5046474;28;20036;-73
2022/02/24 12:18:49;;;;;;;3.70;1.00;;;;;;;;;;5048713;28;20511;-75
2022/02/24 12:21:28;;;;;;;2.80;0.82;;;;;;;;;;5034153;28;20063;-68
2022/02/24 12:23:55;;;;;;;2.00;1.50;;;;;;;;;;5035014;28;20038;-67
2022/02/24 12:26:38;;;;;;;1.95;1.02;;;;;;;;;;5035256;28;20036;-67
2022/02/24 12:29:26;;;;;;;3.13;1.20;;;;;;;;;;5036096;28;20036;-68
2022/02/24 12:32:02;;;;;;;1.08;0.93;;;;;;;;;;5037587;28;20126;-73
2022/02/24 12:34:28;;;;;;;2.97;1.15;;;;;;;;;;5024164;28;20072;-73
2022/02/24 12:37:13;;;;;;;1.95;0.85;;;;;;;;;;5038080;28;20021;-75
2022/02/24 12:39:41;;;;;;;8.73;1.98;;;15.10;56.90;;;;;;5032634;28;20021;-75
2022/02/24 12:42:11;;;;;;;9.95;2.15;;;;;;;;;;5035905;28;20017;-75
2022/02/24 12:44:37;;;;;;;3.72;1.83;;;;;;;;;;5032418;28;20025;-76
2022/02/24 12:47:04;;;;;;;2.65;1.30;;;;;;;;;;5035859;28;20041;-74
2022/02/24 12:49:42;;;;;;;1.67;0.70;;;;;;;;;;5035541;28;20034;-74
2022/02/24 12:52:09;;;;;;;1.27;1.02;;;;;;;;;;5034588;28;20025;-72
2022/02/24 12:54:35;;;;;;;6.00;2.60;;;;;;;;;;5023898;28;20674;-74
2022/02/24 12:57:02;;;;;;;2.10;1.10;;;;;;;;;;5035029;28;20078;-70
2022/02/24 12:59:28;;;;;;;4.72;2.45;;;;;;;;;;5035451;28;20609;-77
2022/02/24 13:01:54;;;;;;;9.30;1.42;;;;;;;;;;5037701;28;20033;-78
2022/02/24 13:04:21;;;;;;;2.83;1.00;;;;;;;;;;5033011;28;20096;-71
2022/02/24 13:06:48;;;;;;;2.53;1.10;;;;;;;;;;5045576;28;20610;-71
2022/02/24 13:11:59;;;;;;;3.78;1.60;;;;;;;;;;5047045;28;20078;-71
2022/02/24 13:14:25;;;;;;;2.38;2.10;;;;;;;;;;5027979;28;20048;-70
2022/02/24 13:16:55;;;;;;;2.97;1.00;;;16.00;62.80;;;;;;5035616;28;20146;-71
2022/02/24 13:19:22;;;;;;;2.83;1.02;;;;;;;;;;5036195;28;20506;-71
2022/02/24 13:21:52;;;;;;;1.38;1.10;;;;;;;;;;5044231;28;20029;-70
2022/02/24 13:24:32;;;;;;;0.95;0.93;;;;;;;;;;5033635;28;20034;-70
2022/02/24 13:26:58;;;;;;;3.00;0.88;;;15.80;53.20;;;;;;5045024;28;20060;-71
2022/02/24 13:29:25;;;;;;;3.97;1.67;;;;;;;;;;5041972;28;20032;-71
2022/02/24 13:32:09;;;;;;;1.33;1.20;;;;;;;;;;5035317;28;20543;-71
2022/02/24 13:34:36;;;;;;;2.63;0.88;;;;;;;;;;5022597;28;20559;-71
2022/02/24 13:37:05;;;;;;;6.00;1.13;;;;;;;;;;5031030;28;20025;-70
2022/02/24 13:39:32;;;;;;;3.63;1.58;;;;;;;;;;5046723;28;20110;-71
2022/02/24 13:41:59;;;;;;;5.32;1.08;;;;;;;;;;5033691;28;20024;-71
2022/02/24 13:44:26;;;;;;;1.50;1.02;;;16.70;53.00;;;;;;5028662;28;20041;-71
2022/02/24 13:47:02;;;;;;;3.45;1.13;;;;;;;;;;5014663;28;20034;-73
2022/02/24 13:49:35;;;;;;;2.58;1.13;;;;;;;;;;5043393;28;20034;-72
2022/02/24 13:52:03;;;;;;;1.55;1.08;;;16.00;53.00;;;;;;5038992;28;20037;-74
2022/02/24 13:54:29;;;;;;;2.22;0.77;;;;;;;;;;5023110;28;20049;-74
2022/02/24 13:56:55;;;;;;;3.20;1.15;;;;;;;;;;5037693;28;20028;-73
2022/02/24 13:59:24;;;;;;;1.08;0.98;;;;;;;;;;5033492;28;20108;-71
2022/02/24 14:01:52;;;;;;;6.85;2.17;;;;;;;;;;5026180;28;20025;-73
2022/02/24 14:04:18;;;;;;;2.78;1.55;;;;;;;;;;5022406;28;20052;-73
2022/02/24 14:06:46;;;;;;;3.10;1.20;;;;;;;;;;5034101;28;21162;-73
2022/02/24 14:09:12;;;;;;;;;;;;;;;;;;5040056;28;20174;-73
2022/02/24 14:11:43;;;;;;;6.55;1.77;;;;;;;;;;5039931;28;19944;-72
2022/02/24 14:14:09;;;;;;;3.80;1.10;;;;;;;;;;5025804;28;20785;-73
2022/02/24 14:16:35;;;;;;;4.25;2.05;;;;;;;;;;5033186;28;20031;-73
2022/02/24 14:19:01;;;;;;;2.30;1.13;;;;;;;;;;5042580;28;20025;-73
2022/02/24 14:21:27;;;;;;;4.22;0.95;;;;;;;;;;5030177;28;20120;-73
2022/02/24 14:23:53;;;;;;;3.45;1.08;;;;;;;;;;5033090;28;20529;-74
2022/02/24 14:26:20;;;;;;;3.38;1.63;;;;;;;;;;5031883;28;20139;-71
2022/02/24 14:28:46;;;;;;;2.70;0.82;;;;;;;;;;5045062;28;20021;-71
2022/02/24 14:31:12;;;;;;;5.68;1.60;;;;;;;;;;5042077;28;20038;-72
2022/02/24 14:33:39;;;;;;;4.20;1.80;;;;;;;;;;5038933;28;20061;-72
2022/02/24 14:36:05;;;;;;;4.53;3.00;;;;;;;;;;5024631;28;20036;-72
2022/02/24 14:38:32;;;;;;;5.68;1.90;;;;;;;;;;5035144;28;20103;-71
2022/02/24 14:40:58;;;;;;;5.20;2.20;;;15.70;78.80;;;;;;5034666;28;20512;-71
2022/02/24 14:43:25;;;;;;;9.50;2.92;;;;;;;;;;5032708;28;20287;-71
2022/02/24 14:45:51;;;;;;;5.43;2.13;;;;;;;;;;5026526;28;20761;-70
2022/02/24 14:48:21;;;;;;;7.10;2.05;;;15.30;56.30;;;;;;5043777;28;20032;-71
2022/02/24 14:50:47;;;;;;;3.03;1.88;;;;;;;;;;5032719;28;20033;-73
2022/02/24 14:53:13;;;;;;;9.05;3.17;;;;;;;;;;5030188;28;20034;-73
2022/02/24 14:55:39;;;;;;;5.43;1.95;;;;;;;;;;5022759;28;20041;-74
2022/02/24 14:58:06;;;;;;;5.28;1.85;;;;;;;;;;5032939;28;20410;-74
2022/02/24 15:00:32;;;;;;;2.35;1.38;;;;;;;;;;5028388;28;20021;-74
2022/02/24 15:02:59;;;;;;;3.65;1.52;;;;;;;;;;5043114;28;20048;-75
2022/02/24 15:05:30;;;;;;;7.97;2.03;;;;;;;;;;5024504;28;20018;-73
2022/02/24 15:07:56;;;;;;;4.15;1.35;;;;;;;;;;5030463;28;20045;-73
2022/02/24 15:10:22;;;;;;;8.57;1.48;;;;;;;;;;5031710;28;20040;-72
2022/02/24 15:12:48;;;;;;;6.90;1.45;;;;;;;;;;5035884;28;20109;-76
2022/02/24 15:15:17;;;;;;;3.70;1.02;;;;;;;;;;5022793;28;20476;-74